createdAt,value
2023-05-18T00:00:21.182Z,5.67
2023-05-18T00:01:21.177Z,5.67
2023-05-18T00:02:21.219Z,5.67
2023-05-18T00:03:21.392Z,5.67
2023-05-18T00:05:21.186Z,5.78
2023-05-18T00:07:21.186Z,5.56
2023-05-18T00:09:21.171Z,5.56
2023-05-18T00:10:21.243Z,5.56
2023-05-18T00:12:21.189Z,5.56
2023-05-18T00:14:21.179Z,5.39
2023-05-18T00:15:21.182Z,5.39
2023-05-18T00:16:21.215Z,5.39
2023-05-18T00:17:21.187Z,5.56
2023-05-18T00:19:21.235Z,5.11
2023-05-18T00:20:21.177Z,5.39
2023-05-18T00:21:21.215Z,5.39
2023-05-18T00:23:21.192Z,5.39
2023-05-18T00:24:21.198Z,5.56
2023-05-18T00:25:21.187Z,5.56
2023-05-18T00:26:21.186Z,5.22
2023-05-18T00:27:21.189Z,5.56
2023-05-18T00:28:21.193Z,5.39
2023-05-18T00:29:21.201Z,5.22
2023-05-18T00:31:21.199Z,5.22
2023-05-18T00:32:21.197Z,5.39
2023-05-18T00:34:21.203Z,5.67
2023-05-18T00:35:21.205Z,5.39
2023-05-18T00:36:21.213Z,5.39
2023-05-18T00:37:21.251Z,5.39
2023-05-18T00:38:21.207Z,5.67
2023-05-18T00:39:21.220Z,5.39
2023-05-18T00:40:21.224Z,5.67
2023-05-18T00:42:21.212Z,5.22
2023-05-18T00:43:21.229Z,5.56
2023-05-18T00:44:21.209Z,5.39
2023-05-18T00:45:21.240Z,5.22
2023-05-18T00:46:21.234Z,5.39
2023-05-18T00:47:21.221Z,5.39
2023-05-18T00:48:21.227Z,5.22
2023-05-18T00:49:21.226Z,5.22
2023-05-18T00:50:21.233Z,5.56
2023-05-18T00:51:21.233Z,5.56
2023-05-18T00:52:21.224Z,5.22
2023-05-18T00:53:21.258Z,5.56
2023-05-18T00:55:21.228Z,5.56
2023-05-18T00:56:21.226Z,5.39
2023-05-18T00:57:21.234Z,5.39
2023-05-18T00:59:21.230Z,5.39
2023-05-18T01:00:21.237Z,5.39
2023-05-18T01:02:21.257Z,5.39
2023-05-18T01:03:21.317Z,5.56
2023-05-18T01:04:21.234Z,5.39
2023-05-18T01:06:21.235Z,5.39
2023-05-18T01:07:21.251Z,5.39
2023-05-18T01:09:21.292Z,5.39
2023-05-18T01:11:21.278Z,5.39
2023-05-18T01:13:21.252Z,5.39
2023-05-18T01:15:21.246Z,5.39
2023-05-18T01:16:21.247Z,5.39
2023-05-18T01:17:21.355Z,5.39
2023-05-18T01:18:21.258Z,5.39
2023-05-18T01:20:21.248Z,5.39
2023-05-18T01:21:21.256Z,5.39
2023-05-18T01:22:21.270Z,5.11
2023-05-18T01:24:21.264Z,5.39
2023-05-18T01:25:21.302Z,5.22
2023-05-18T01:27:21.270Z,5.11
2023-05-18T01:28:21.255Z,5.22
2023-05-18T01:29:21.271Z,5.22
2023-05-18T01:30:21.264Z,4.83
2023-05-18T01:32:21.259Z,5.22
2023-05-18T01:33:21.275Z,4.94
2023-05-18T01:34:21.270Z,4.94
2023-05-18T01:35:21.290Z,5.11
2023-05-18T01:37:21.271Z,4.94
2023-05-18T01:38:21.267Z,5.11
2023-05-18T01:39:21.264Z,4.83
2023-05-18T01:40:21.279Z,4.94
2023-05-18T01:41:21.298Z,4.94
2023-05-18T01:42:21.315Z,4.94
2023-05-18T01:44:21.275Z,5.22
2023-05-18T01:45:21.286Z,5.22
2023-05-18T01:47:21.291Z,5.11
2023-05-18T01:48:21.290Z,5.11
2023-05-18T01:49:21.276Z,5.11
2023-05-18T01:50:21.303Z,5.22
2023-05-18T01:52:21.309Z,5.11
2023-05-18T01:54:21.311Z,4.94
2023-05-18T01:55:21.304Z,5.11
2023-05-18T01:56:21.280Z,5.22
2023-05-18T01:57:21.334Z,5.11
2023-05-18T01:59:21.293Z,4.94
2023-05-18T02:00:21.296Z,4.83
2023-05-18T02:02:21.448Z,4.94
2023-05-18T02:03:21.344Z,5.11
2023-05-18T02:04:21.300Z,4.5
2023-05-18T02:05:21.303Z,5.11
2023-05-18T02:06:21.295Z,4.94
2023-05-18T02:07:21.300Z,4.94
2023-05-18T02:09:21.291Z,4.94
2023-05-18T02:11:21.314Z,4.94
2023-05-18T02:13:21.311Z,4.94
2023-05-18T02:15:21.298Z,4.94
2023-05-18T02:16:21.328Z,4.83
2023-05-18T02:18:21.299Z,4.94
2023-05-18T02:19:21.470Z,4.94
2023-05-18T02:20:21.316Z,4.67
2023-05-18T02:21:21.303Z,5.11
2023-05-18T02:23:21.299Z,4.94
2023-05-18T02:24:21.314Z,4.94
2023-05-18T02:26:21.296Z,4.94
2023-05-18T02:27:21.301Z,4.67
2023-05-18T02:28:21.300Z,4.94
2023-05-18T02:29:21.369Z,4.39
2023-05-18T02:31:21.355Z,4.94
2023-05-18T02:32:21.309Z,4.83
2023-05-18T02:33:21.308Z,4.67
2023-05-18T02:34:21.299Z,4.94
2023-05-18T02:35:21.313Z,4.94
2023-05-18T02:36:21.300Z,4.83
2023-05-18T02:37:21.306Z,4.94
2023-05-18T02:38:21.329Z,4.94
2023-05-18T02:39:21.297Z,4.94
2023-05-18T02:40:21.311Z,4.83
2023-05-18T02:42:21.314Z,4.94
2023-05-18T02:43:21.331Z,5.11
2023-05-18T02:44:21.310Z,4.94
2023-05-18T02:45:21.351Z,4.94
2023-05-18T02:47:21.317Z,5.11
2023-05-18T02:48:21.318Z,4.94
2023-05-18T02:49:21.318Z,4.83
2023-05-18T02:50:21.331Z,4.67
2023-05-18T02:52:21.316Z,5.11
2023-05-18T02:53:21.330Z,4.94
2023-05-18T02:54:21.320Z,4.83
2023-05-18T02:56:21.322Z,4.94
2023-05-18T02:57:21.319Z,4.94
2023-05-18T02:58:21.320Z,4.94
2023-05-18T02:59:21.320Z,4.83
2023-05-18T03:00:21.324Z,4.94
2023-05-18T03:01:21.394Z,4.67
2023-05-18T03:02:21.328Z,4.94
2023-05-18T03:03:21.353Z,4.94
2023-05-18T03:04:21.356Z,4.94
2023-05-18T03:06:21.337Z,4.94
2023-05-18T03:08:21.327Z,4.83
2023-05-18T03:09:21.321Z,4.94
2023-05-18T03:10:21.321Z,4.94
2023-05-18T03:12:21.331Z,4.94
2023-05-18T03:13:21.340Z,4.67
2023-05-18T03:15:21.344Z,4.94
2023-05-18T03:16:21.361Z,4.94
2023-05-18T03:17:21.373Z,4.67
2023-05-18T03:19:21.427Z,4.5
2023-05-18T03:20:21.350Z,4.67
2023-05-18T03:21:21.338Z,4.94
2023-05-18T03:22:21.348Z,4.83
2023-05-18T03:24:21.336Z,4.83
2023-05-18T03:25:21.323Z,4.83
2023-05-18T03:26:21.342Z,4.67
2023-05-18T03:27:21.337Z,5.11
2023-05-18T03:29:21.349Z,4.94
2023-05-18T03:30:21.337Z,5.11
2023-05-18T03:31:21.348Z,4.94
2023-05-18T03:32:21.348Z,4.94
2023-05-18T03:33:21.350Z,4.83
2023-05-18T03:35:21.367Z,4.94
2023-05-18T03:36:21.328Z,5.11
2023-05-18T03:37:21.340Z,5.22
2023-05-18T03:38:21.356Z,4.83
2023-05-18T03:39:21.354Z,5.22
2023-05-18T03:40:21.365Z,5.11
2023-05-18T03:41:21.351Z,5.11
2023-05-18T03:43:21.368Z,5.11
2023-05-18T03:44:21.374Z,5.11
2023-05-18T03:45:21.343Z,5.22
2023-05-18T03:46:21.394Z,4.94
2023-05-18T03:47:21.354Z,5.22
2023-05-18T03:49:21.366Z,5.11
2023-05-18T03:51:21.362Z,5.11
2023-05-18T03:52:21.363Z,5.11
2023-05-18T03:53:21.373Z,5.39
2023-05-18T03:54:21.350Z,5.22
2023-05-18T03:55:21.381Z,5.39
2023-05-18T03:56:21.378Z,4.94
2023-05-18T03:57:21.357Z,5.39
2023-05-18T03:58:21.376Z,5.39
2023-05-18T03:59:21.370Z,5.22
2023-05-18T04:01:21.370Z,5.22
2023-05-18T04:02:21.382Z,5.22
2023-05-18T04:04:21.386Z,5.56
2023-05-18T04:05:21.382Z,5.22
2023-05-18T04:07:21.369Z,5.22
2023-05-18T04:08:21.356Z,5.22
2023-05-18T04:09:21.385Z,5.22
2023-05-18T04:11:21.387Z,5.67
2023-05-18T04:12:21.372Z,5.39
2023-05-18T04:14:21.378Z,5.67
2023-05-18T04:16:21.457Z,5.67
2023-05-18T04:17:21.368Z,5.39
2023-05-18T04:18:21.380Z,5.39
2023-05-18T04:19:21.403Z,5.39
2023-05-18T04:20:21.376Z,5.67
2023-05-18T04:21:21.439Z,5.56
2023-05-18T04:23:21.381Z,5.67
2023-05-18T04:24:21.391Z,5.56
2023-05-18T04:25:21.406Z,5.39
2023-05-18T04:27:21.394Z,5.56
2023-05-18T04:29:21.387Z,5.67
2023-05-18T04:30:21.393Z,5.39
2023-05-18T04:31:21.502Z,5.78
2023-05-18T04:32:21.395Z,5.67
2023-05-18T04:33:21.397Z,5.78
2023-05-18T04:34:21.395Z,5.78
2023-05-18T04:35:21.401Z,5.56
2023-05-18T04:36:21.603Z,5.39
2023-05-18T04:37:21.432Z,5.94
2023-05-18T04:39:21.388Z,5.67
2023-05-18T04:40:21.403Z,5.56
2023-05-18T04:41:21.403Z,5.67
2023-05-18T04:42:21.409Z,5.78
2023-05-18T04:43:21.403Z,5.78
2023-05-18T04:44:21.411Z,5.78
2023-05-18T04:45:21.415Z,5.78
2023-05-18T04:46:21.458Z,5.78
2023-05-18T04:47:21.417Z,5.22
2023-05-18T04:48:21.418Z,5.78
2023-05-18T04:49:21.415Z,6.22
2023-05-18T04:51:21.437Z,5.94
2023-05-18T04:52:21.417Z,5.67
2023-05-18T04:53:21.450Z,5.78
2023-05-18T04:54:21.413Z,5.78
2023-05-18T04:55:21.416Z,5.94
2023-05-18T04:56:21.415Z,6.06
2023-05-18T04:57:21.440Z,6.22
2023-05-18T04:58:21.443Z,6.06
2023-05-18T04:59:21.426Z,6.39
2023-05-18T05:01:21.432Z,6.39
2023-05-18T05:03:21.449Z,5.94
2023-05-18T05:04:21.448Z,5.94
2023-05-18T05:06:21.452Z,6.22
2023-05-18T05:08:21.428Z,5.94
2023-05-18T05:09:21.473Z,5.94
2023-05-18T05:11:21.461Z,5.67
2023-05-18T05:12:21.421Z,6.06
2023-05-18T05:13:21.439Z,6.5
2023-05-18T05:14:21.427Z,6.67
2023-05-18T05:15:21.455Z,6.22
2023-05-18T05:16:21.471Z,6.22
2023-05-18T05:17:21.440Z,6.5
2023-05-18T05:19:21.486Z,6.5
2023-05-18T05:20:21.473Z,6.39
2023-05-18T05:22:21.439Z,6.67
2023-05-18T05:23:21.452Z,6.39
2023-05-18T05:24:21.449Z,6.78
2023-05-18T05:25:21.470Z,6.67
2023-05-18T05:27:21.451Z,6.5
2023-05-18T05:28:21.469Z,6.67
2023-05-18T05:29:21.459Z,6.78
2023-05-18T05:30:21.460Z,6.94
2023-05-18T05:32:21.457Z,6.94
2023-05-18T05:33:21.446Z,7.11
2023-05-18T05:34:21.454Z,6.94
2023-05-18T05:35:21.458Z,7.11
2023-05-18T05:36:21.460Z,6.94
2023-05-18T05:37:21.457Z,7.11
2023-05-18T05:38:21.472Z,6.94
2023-05-18T05:39:21.467Z,7.11
2023-05-18T05:40:21.461Z,7.5
2023-05-18T05:41:21.488Z,7.67
2023-05-18T05:43:21.475Z,8.28
2023-05-18T05:45:21.486Z,7.22
2023-05-18T05:47:21.504Z,7.39
2023-05-18T05:48:21.501Z,7.22
2023-05-18T05:49:21.492Z,6.94
2023-05-18T05:51:21.483Z,7.39
2023-05-18T05:52:21.489Z,7.67
2023-05-18T05:53:21.484Z,7.78
2023-05-18T05:54:21.491Z,7.5
2023-05-18T05:55:21.500Z,7.94
2023-05-18T05:57:21.524Z,8.61
2023-05-18T05:58:21.481Z,9.22
2023-05-18T05:59:21.508Z,9.22
2023-05-18T06:00:21.520Z,9.5
2023-05-18T06:02:21.551Z,9.78
2023-05-18T06:03:21.644Z,10.11
2023-05-18T06:04:21.547Z,10.11
2023-05-18T06:05:21.488Z,9.78
2023-05-18T06:06:21.529Z,9.67
2023-05-18T06:07:21.501Z,9.39
2023-05-18T06:08:21.500Z,9.39
2023-05-18T06:10:21.507Z,10.11
2023-05-18T06:12:21.515Z,9.67
2023-05-18T06:13:21.554Z,9.94
2023-05-18T06:15:21.500Z,9.67
2023-05-18T06:16:21.573Z,9.94
2023-05-18T06:17:21.505Z,10.56
2023-05-18T06:18:21.527Z,10.56
2023-05-18T06:20:21.521Z,11
2023-05-18T06:21:21.523Z,11.61
2023-05-18T06:23:21.509Z,10.83
2023-05-18T06:24:21.551Z,10.67
2023-05-18T06:26:21.510Z,11.11
2023-05-18T06:28:21.528Z,11
2023-05-18T06:29:21.545Z,11.44
2023-05-18T06:30:21.518Z,11.61
2023-05-18T06:31:21.590Z,11.61
2023-05-18T06:32:21.553Z,11.28
2023-05-18T06:33:21.549Z,11.44
2023-05-18T06:35:21.531Z,11
2023-05-18T06:36:21.538Z,11.72
2023-05-18T06:37:21.553Z,12.28
2023-05-18T06:39:21.526Z,11.44
2023-05-18T06:40:21.517Z,11.11
2023-05-18T06:41:21.535Z,10.67
2023-05-18T06:42:21.544Z,10.11
2023-05-18T06:43:21.542Z,10.22
2023-05-18T06:44:21.588Z,10.39
2023-05-18T06:46:21.548Z,10.39
2023-05-18T06:47:21.535Z,11.44
2023-05-18T06:48:21.546Z,11.44
2023-05-18T06:50:21.559Z,11.61
2023-05-18T06:52:21.556Z,11.61
2023-05-18T06:53:21.542Z,12.11
2023-05-18T06:54:21.565Z,11.83
2023-05-18T06:55:21.558Z,12.28
2023-05-18T06:58:21.607Z,12.56
2023-05-18T06:59:21.554Z,13.94
2023-05-18T07:00:21.598Z,15.39
2023-05-18T07:01:21.616Z,16.5
2023-05-18T07:03:21.639Z,17
2023-05-18T07:04:21.561Z,17.94
2023-05-18T07:05:21.572Z,18.11
2023-05-18T07:06:21.562Z,18.83
2023-05-18T07:07:21.600Z,18.28
2023-05-18T07:08:21.574Z,18.56
2023-05-18T07:10:21.559Z,16.39
2023-05-18T07:11:21.576Z,15.22
2023-05-18T07:12:21.567Z,16.22
2023-05-18T07:13:21.594Z,14.89
2023-05-18T07:14:21.577Z,14.28
2023-05-18T07:15:21.581Z,15.22
2023-05-18T07:17:21.600Z,15.39
2023-05-18T07:19:21.645Z,15.17
2023-05-18T07:20:22.663Z,14.56
2023-05-18T07:21:21.584Z,14.39
2023-05-18T07:22:21.582Z,15
2023-05-18T07:23:21.579Z,14.89
2023-05-18T07:24:21.581Z,14.39
2023-05-18T07:25:21.599Z,13.78
2023-05-18T07:27:21.599Z,12.28
2023-05-18T07:29:21.642Z,11.83
2023-05-18T07:31:21.888Z,11.83
2023-05-18T07:32:21.592Z,13.17
2023-05-18T07:33:21.621Z,13.94
2023-05-18T07:35:21.637Z,12.72
2023-05-18T07:36:21.600Z,13.17
2023-05-18T07:37:21.594Z,12.56
2023-05-18T07:38:21.625Z,12.89
2023-05-18T07:40:21.607Z,11.44
2023-05-18T07:41:21.598Z,11.44
2023-05-18T07:42:21.612Z,11.44
2023-05-18T07:44:21.621Z,12.72
2023-05-18T07:45:21.600Z,12.44
2023-05-18T07:46:21.662Z,11.94
2023-05-18T07:47:21.609Z,11.61
2023-05-18T07:49:21.679Z,11.72
2023-05-18T07:50:21.640Z,11.72
2023-05-18T07:52:21.612Z,11
2023-05-18T07:53:21.599Z,11.83
2023-05-18T07:54:21.644Z,11.61
2023-05-18T07:56:21.609Z,10.67
2023-05-18T07:57:21.617Z,11
2023-05-18T07:59:21.622Z,10.11
2023-05-18T08:00:21.605Z,10.56
2023-05-18T08:01:21.618Z,11
2023-05-18T08:03:21.717Z,11.83
2023-05-18T08:04:21.653Z,11.61
2023-05-18T08:05:21.686Z,11.83
2023-05-18T08:06:21.612Z,11.83
2023-05-18T08:07:21.607Z,11.61
2023-05-18T08:08:21.625Z,11.28
2023-05-18T08:09:21.615Z,11.28
2023-05-18T08:11:21.627Z,10.67
2023-05-18T08:12:21.609Z,10.67
2023-05-18T08:13:21.609Z,9.94
2023-05-18T08:14:21.609Z,10.11
2023-05-18T08:15:21.605Z,10.22
2023-05-18T08:16:21.625Z,10.67
2023-05-18T08:17:21.617Z,10.67
2023-05-18T08:18:21.633Z,10.39
2023-05-18T08:20:21.619Z,11
2023-05-18T08:21:21.741Z,11.28
2023-05-18T08:23:21.617Z,11.11
2023-05-18T08:24:21.610Z,11
2023-05-18T08:25:21.614Z,11
2023-05-18T08:26:21.612Z,11.44
2023-05-18T08:28:21.606Z,11.11
2023-05-18T08:29:21.619Z,11
2023-05-18T08:30:21.614Z,11.11
2023-05-18T08:32:21.778Z,11
2023-05-18T08:33:21.634Z,10.44
2023-05-18T08:34:21.623Z,10.44
2023-05-18T08:35:21.608Z,10.56
2023-05-18T08:36:21.612Z,10.56
2023-05-18T08:37:21.640Z,10.56
2023-05-18T08:38:21.595Z,10.61
2023-05-18T08:39:21.603Z,10.33
2023-05-18T08:40:21.634Z,10.61
2023-05-18T08:42:21.614Z,11.17
2023-05-18T08:44:21.622Z,10.89
2023-05-18T08:45:21.611Z,10.72
2023-05-18T08:46:21.610Z,11.33
2023-05-18T08:47:21.627Z,11.5
2023-05-18T08:48:21.668Z,11.06
2023-05-18T08:49:21.627Z,11.06
2023-05-18T08:50:24.239Z,11.06
2023-05-18T08:52:21.602Z,10.72
2023-05-18T08:53:21.725Z,10.89
2023-05-18T08:55:21.610Z,11.06
2023-05-18T08:56:21.627Z,10.72
2023-05-18T08:58:21.630Z,11.06
2023-05-18T09:00:22.262Z,11.06
2023-05-18T09:01:21.605Z,11.06
2023-05-18T09:02:21.629Z,11.17
2023-05-18T09:03:21.638Z,11.17
2023-05-18T09:04:21.620Z,11.06
2023-05-18T09:05:21.731Z,10.72
2023-05-18T09:06:23.493Z,10.72
2023-05-18T09:07:21.616Z,10.61
2023-05-18T09:08:21.639Z,10.72
2023-05-18T09:09:21.630Z,10.72
2023-05-18T09:11:21.611Z,10.33
2023-05-18T09:12:23.558Z,10.72
2023-05-18T09:14:21.615Z,11.5
2023-05-18T09:15:21.624Z,11.78
2023-05-18T09:17:21.611Z,10.72
2023-05-18T09:18:24.006Z,10.72
2023-05-18T09:19:21.708Z,10.61
2023-05-18T09:20:21.771Z,10.61
2023-05-18T09:22:21.608Z,10.61
2023-05-18T09:23:21.646Z,10.72
2023-05-18T09:24:23.857Z,10.61
2023-05-18T09:25:21.692Z,10.72
2023-05-18T09:27:21.619Z,10.61
2023-05-18T09:28:21.611Z,10.72
2023-05-18T09:30:21.675Z,10.44
2023-05-18T09:32:21.629Z,10.72
2023-05-18T09:33:21.774Z,10.61
2023-05-18T09:34:21.615Z,10.72
2023-05-18T09:35:21.610Z,10.72
2023-05-18T09:36:21.625Z,10.72
2023-05-18T09:37:21.630Z,10.72
2023-05-18T09:39:21.612Z,10.72
2023-05-18T09:40:21.689Z,10.72
2023-05-18T09:41:21.669Z,11.06
2023-05-18T09:43:21.625Z,10.89
2023-05-18T09:44:21.624Z,10.61
2023-05-18T09:45:21.613Z,10.72
2023-05-18T09:47:21.619Z,11.06
2023-05-18T09:48:23.546Z,10.72
2023-05-18T09:49:21.621Z,10.61
2023-05-18T09:50:21.648Z,10.72
2023-05-18T09:51:21.618Z,10.72
2023-05-18T09:52:21.613Z,10.61
2023-05-18T09:53:21.624Z,10.72
2023-05-18T09:54:23.687Z,11.06
2023-05-18T09:55:21.629Z,11.06
2023-05-18T09:56:21.622Z,10.89
2023-05-18T09:57:21.649Z,11.17
2023-05-18T09:58:21.611Z,11.06
2023-05-18T09:59:21.621Z,10.72
2023-05-18T10:01:21.739Z,11.06
2023-05-18T10:02:21.629Z,11.17
2023-05-18T10:04:21.657Z,11.17
2023-05-18T10:05:21.652Z,10.89
2023-05-18T10:06:21.629Z,11.06
2023-05-18T10:07:21.628Z,11.06
2023-05-18T10:09:21.627Z,10.33
2023-05-18T10:10:21.630Z,10.61
2023-05-18T10:11:21.637Z,10.72
2023-05-18T10:13:21.650Z,11.06
2023-05-18T10:15:21.640Z,11.06
2023-05-18T10:17:21.683Z,10.72
2023-05-18T10:18:21.680Z,10.61
2023-05-18T10:19:21.687Z,10.89
2023-05-18T10:20:21.647Z,11.17
2023-05-18T10:21:21.640Z,11.17
2023-05-18T10:22:21.655Z,11.61
2023-05-18T10:24:21.646Z,11.17
2023-05-18T10:25:21.654Z,11.61
2023-05-18T10:26:21.643Z,11.5
2023-05-18T10:27:21.667Z,11.33
2023-05-18T10:28:21.647Z,11.5
2023-05-18T10:29:21.765Z,11.5
2023-05-18T10:31:21.693Z,11.78
2023-05-18T10:32:21.656Z,11.89
2023-05-18T10:33:28.957Z,11.78
2023-05-18T10:34:21.654Z,12
2023-05-18T10:35:21.660Z,12
2023-05-18T10:36:21.659Z,11.78
2023-05-18T10:37:21.658Z,12
2023-05-18T10:38:21.672Z,12.33
2023-05-18T10:39:21.669Z,11.89
2023-05-18T10:41:21.681Z,12
2023-05-18T10:42:21.664Z,12
2023-05-18T10:43:23.950Z,12.33
2023-05-18T10:45:21.724Z,12.33
2023-05-18T10:47:21.848Z,13.67
2023-05-18T10:48:21.726Z,13.83
2023-05-18T10:49:21.669Z,14
2023-05-18T10:50:21.699Z,14.11
2023-05-18T10:52:21.677Z,14
2023-05-18T10:53:21.664Z,14.28
2023-05-18T10:54:21.700Z,14.11
2023-05-18T10:55:21.670Z,14.28
2023-05-18T10:56:21.688Z,15
2023-05-18T10:57:21.677Z,15.44
2023-05-18T10:58:21.672Z,14.78
2023-05-18T10:59:21.685Z,13.67
2023-05-18T11:00:21.700Z,13.67
2023-05-18T11:01:21.866Z,13.39
2023-05-18T11:03:21.683Z,13.22
2023-05-18T11:05:21.886Z,12.94
2023-05-18T11:06:21.681Z,13.39
2023-05-18T11:07:21.714Z,13.83
2023-05-18T11:09:21.690Z,12.78
2023-05-18T11:11:21.679Z,12.94
2023-05-18T11:12:21.697Z,12.78
2023-05-18T11:14:21.690Z,12.61
2023-05-18T11:16:21.709Z,12.94
2023-05-18T11:17:21.710Z,12.33
2023-05-18T11:18:21.680Z,12.33
2023-05-18T11:19:21.711Z,12.33
2023-05-18T11:20:21.698Z,12.78
2023-05-18T11:21:21.691Z,12.94
2023-05-18T11:22:21.709Z,12.78
2023-05-18T11:24:21.700Z,13.11
2023-05-18T11:26:21.711Z,12.78
2023-05-18T11:28:21.710Z,12.61
2023-05-18T11:29:21.725Z,12.94
2023-05-18T11:30:21.686Z,12.78
2023-05-18T11:31:21.695Z,13.22
2023-05-18T11:32:29.092Z,13.39
2023-05-18T11:33:21.791Z,13.11
2023-05-18T11:35:21.702Z,12.61
2023-05-18T11:36:21.697Z,13.39
2023-05-18T11:37:21.705Z,13.39
2023-05-18T11:38:21.693Z,13.39
2023-05-18T11:39:21.707Z,13.22
2023-05-18T11:41:21.710Z,12.94
2023-05-18T11:43:21.737Z,13.11
2023-05-18T11:44:21.696Z,12.5
2023-05-18T11:45:21.704Z,12.61
2023-05-18T11:46:21.709Z,12.78
2023-05-18T11:47:21.714Z,12.94
2023-05-18T11:49:21.742Z,12.61
2023-05-18T11:51:21.706Z,12.78
2023-05-18T11:52:21.711Z,12.94
2023-05-18T11:53:21.701Z,12.94
2023-05-18T11:55:21.710Z,13.11
2023-05-18T11:57:21.717Z,12.94
2023-05-18T11:58:21.733Z,12.94
2023-05-18T11:59:21.720Z,13.11
2023-05-18T12:01:21.711Z,13.67
2023-05-18T12:02:21.731Z,13.39
2023-05-18T12:03:21.737Z,13.11
2023-05-18T12:05:21.753Z,12.78
2023-05-18T12:07:21.734Z,12.94
2023-05-18T12:09:21.746Z,12.33
2023-05-18T12:11:21.726Z,12.5
2023-05-18T12:12:21.732Z,12.17
2023-05-18T12:13:21.717Z,11.61
2023-05-18T12:14:21.752Z,12
2023-05-18T12:15:21.738Z,12.17
2023-05-18T12:16:21.771Z,12.61
2023-05-18T12:18:21.807Z,12
2023-05-18T12:19:21.776Z,12.5
2023-05-18T12:20:21.763Z,11.89
2023-05-18T12:21:22.143Z,12.33
2023-05-18T12:23:21.746Z,12.61
2023-05-18T12:25:21.755Z,12.5
2023-05-18T12:26:21.748Z,12.78
2023-05-18T12:28:21.749Z,12.94
2023-05-18T12:29:21.750Z,12.78
2023-05-18T12:31:21.762Z,13.22
2023-05-18T12:32:21.755Z,12.78
2023-05-18T12:34:21.747Z,13.22
2023-05-18T12:36:21.750Z,12.5
2023-05-18T12:37:23.913Z,13.22
2023-05-18T12:38:21.751Z,13.22
2023-05-18T12:39:21.746Z,12.78
2023-05-18T12:40:21.736Z,12.78
2023-05-18T12:42:21.754Z,12.61
2023-05-18T12:44:21.756Z,13.11
2023-05-18T12:45:21.740Z,13.39
2023-05-18T12:46:21.796Z,13.11
2023-05-18T12:47:21.779Z,13.39
2023-05-18T12:48:21.796Z,12.61
2023-05-18T12:49:21.754Z,13.11
2023-05-18T12:51:21.762Z,12.94
2023-05-18T12:52:21.762Z,12.5
2023-05-18T12:53:21.788Z,12.94
2023-05-18T12:54:21.748Z,12.61
2023-05-18T12:55:21.919Z,12.94
2023-05-18T12:56:21.742Z,13.56
2023-05-18T12:57:21.766Z,13.39
2023-05-18T12:58:21.771Z,12.94
2023-05-18T12:59:21.774Z,13.22
2023-05-18T13:00:21.765Z,13.39
2023-05-18T13:01:21.799Z,13.39
2023-05-18T13:02:21.775Z,12.94
2023-05-18T13:03:22.370Z,13.11
2023-05-18T13:04:21.798Z,13.11
2023-05-18T13:05:21.771Z,12.94
2023-05-18T13:06:21.765Z,13.56
2023-05-18T13:07:21.787Z,13.39
2023-05-18T13:08:22.113Z,13.56
2023-05-18T13:09:21.804Z,13.39
2023-05-18T13:10:21.760Z,12.94
2023-05-18T13:11:21.783Z,13.11
2023-05-18T13:12:21.771Z,13.22
2023-05-18T13:13:21.786Z,13.11
2023-05-18T13:14:21.786Z,13.39
2023-05-18T13:15:21.802Z,13.22
2023-05-18T13:17:21.872Z,12.61
2023-05-18T13:19:21.841Z,12.78
2023-05-18T13:20:21.776Z,13.39
2023-05-18T13:21:21.781Z,13.83
2023-05-18T13:22:21.785Z,13.39
2023-05-18T13:23:21.799Z,13.39
2023-05-18T13:25:21.802Z,13.22
2023-05-18T13:26:21.770Z,13.83
2023-05-18T13:27:21.784Z,14
2023-05-18T13:28:21.777Z,13.83
2023-05-18T13:29:21.779Z,13.83
2023-05-18T13:31:21.818Z,13.11
2023-05-18T13:33:21.801Z,13.11
2023-05-18T13:34:21.779Z,13.39
2023-05-18T13:35:21.795Z,13.39
2023-05-18T13:36:21.782Z,13.39
2023-05-18T13:37:21.785Z,13.22
2023-05-18T13:38:21.789Z,13.39
2023-05-18T13:40:21.796Z,13.39
2023-05-18T13:41:21.824Z,13.56
2023-05-18T13:43:21.807Z,13.39
2023-05-18T13:44:21.798Z,13.22
2023-05-18T13:45:21.798Z,13.11
2023-05-18T13:47:21.794Z,12.94
2023-05-18T13:48:21.859Z,12.78
2023-05-18T13:50:21.875Z,12.33
2023-05-18T13:52:21.795Z,12.33
2023-05-18T13:53:21.803Z,12.5
2023-05-18T13:54:21.811Z,12.5
2023-05-18T13:55:21.818Z,12.61
2023-05-18T13:56:21.783Z,12.5
2023-05-18T13:57:21.832Z,12.78
2023-05-18T13:59:21.792Z,12.94
2023-05-18T14:00:21.793Z,12.78
2023-05-18T14:01:21.819Z,12.5
2023-05-18T14:02:21.850Z,12.5
2023-05-18T14:04:21.805Z,12.5
2023-05-18T14:05:21.793Z,12.94
2023-05-18T14:07:21.806Z,12.94
2023-05-18T14:08:21.803Z,12.78
2023-05-18T14:09:21.789Z,12.61
2023-05-18T14:10:21.797Z,12.94
2023-05-18T14:11:21.798Z,12.94
2023-05-18T14:13:21.821Z,13.22
2023-05-18T14:14:21.788Z,13.22
2023-05-18T14:15:21.793Z,13.39
2023-05-18T14:16:21.837Z,12.78
2023-05-18T14:17:21.970Z,13.22
2023-05-18T14:18:21.802Z,12.94
2023-05-18T14:19:21.896Z,12.94
2023-05-18T14:20:21.799Z,13.11
2023-05-18T14:21:21.802Z,13.39
2023-05-18T14:22:21.817Z,13.39
2023-05-18T14:25:21.818Z,12.94
2023-05-18T14:27:21.805Z,13.39
2023-05-18T14:28:21.814Z,13.22
2023-05-18T14:29:21.847Z,13.11
2023-05-18T14:31:21.846Z,12.94
2023-05-18T14:32:21.886Z,13.11
2023-05-18T14:33:21.799Z,13.11
2023-05-18T14:34:21.810Z,12.94
2023-05-18T14:36:22.241Z,12.5
2023-05-18T14:37:21.840Z,12.61
2023-05-18T14:39:21.811Z,12.5
2023-05-18T14:40:21.818Z,12.33
2023-05-18T14:41:21.836Z,12.5
2023-05-18T14:43:21.821Z,12.33
2023-05-18T14:44:21.817Z,12.17
2023-05-18T14:45:21.850Z,12.17
2023-05-18T14:47:21.824Z,12.61
2023-05-18T14:49:21.818Z,12.5
2023-05-18T14:51:21.818Z,12.17
2023-05-18T14:52:21.813Z,12.61
2023-05-18T14:53:21.824Z,12.17
2023-05-18T14:54:21.822Z,12.17
2023-05-18T14:55:21.826Z,12.33
2023-05-18T14:56:21.815Z,12.5
2023-05-18T14:57:21.854Z,12.5
2023-05-18T14:58:21.865Z,12.5
2023-05-18T15:00:21.842Z,12
2023-05-18T15:01:21.892Z,12.33
2023-05-18T15:02:21.849Z,12.5
2023-05-18T15:03:21.972Z,12.17
2023-05-18T15:04:22.052Z,12
2023-05-18T15:06:21.845Z,12
2023-05-18T15:07:21.851Z,12.17
2023-05-18T15:08:21.854Z,11.78
2023-05-18T15:09:22.028Z,11.61
2023-05-18T15:10:21.852Z,11.78
2023-05-18T15:12:21.852Z,11.61
2023-05-18T15:14:21.845Z,12.17
2023-05-18T15:15:21.844Z,12
2023-05-18T15:16:21.926Z,12
2023-05-18T15:17:21.889Z,12
2023-05-18T15:19:21.992Z,12
2023-05-18T15:20:21.852Z,11.61
2023-05-18T15:22:21.860Z,12
2023-05-18T15:23:21.857Z,11.78
2023-05-18T15:24:21.871Z,12
2023-05-18T15:25:21.850Z,11.78
2023-05-18T15:26:21.858Z,11.61
2023-05-18T15:27:21.890Z,11.61
2023-05-18T15:29:21.853Z,11.78
2023-05-18T15:30:21.868Z,11.61
2023-05-18T15:31:21.933Z,11.78
2023-05-18T15:32:21.860Z,11.61
2023-05-18T15:33:21.897Z,11.61
2023-05-18T15:35:21.874Z,11.5
2023-05-18T15:36:21.912Z,11.61
2023-05-18T15:37:21.867Z,11.17
2023-05-18T15:38:21.883Z,11.61
2023-05-18T15:40:21.873Z,11.61
2023-05-18T15:41:21.879Z,11.78
2023-05-18T15:43:21.888Z,11.61
2023-05-18T15:44:21.901Z,11.5
2023-05-18T15:45:21.876Z,11.61
2023-05-18T15:46:21.903Z,11.61
2023-05-18T15:48:21.893Z,11.78
2023-05-18T15:49:21.914Z,11.78
2023-05-18T15:50:21.881Z,11.61
2023-05-18T15:51:21.890Z,11.78
2023-05-18T15:52:21.895Z,11.33
2023-05-18T15:53:21.882Z,11.5
2023-05-18T15:54:21.896Z,11.78
2023-05-18T15:55:21.887Z,11.61
2023-05-18T15:56:21.922Z,11.61
2023-05-18T15:58:21.897Z,11.33
2023-05-18T16:00:21.900Z,11.33
2023-05-18T16:02:23.757Z,11.17
2023-05-18T16:03:22.075Z,11.61
2023-05-18T16:04:21.883Z,11.5
2023-05-18T16:05:21.926Z,11.61
2023-05-18T16:07:21.912Z,11.5
2023-05-18T16:08:21.914Z,11.5
2023-05-18T16:10:21.920Z,11.5
2023-05-18T16:11:21.916Z,11.61
2023-05-18T16:13:21.899Z,11.61
2023-05-18T16:14:21.896Z,11.33
2023-05-18T16:15:21.931Z,11.33
2023-05-18T16:16:21.959Z,11.61
2023-05-18T16:17:21.931Z,11.5
2023-05-18T16:19:21.999Z,11.33
2023-05-18T16:20:21.938Z,11.33
2023-05-18T16:21:21.941Z,11.33
2023-05-18T16:22:21.932Z,11.17
2023-05-18T16:23:21.928Z,11.17
2023-05-18T16:24:21.906Z,10.89
2023-05-18T16:25:21.920Z,11.06
2023-05-18T16:26:21.920Z,11.17
2023-05-18T16:27:21.960Z,11.17
2023-05-18T16:28:21.911Z,11.5
2023-05-18T16:29:21.928Z,11.06
2023-05-18T16:30:21.918Z,11.17
2023-05-18T16:31:21.983Z,11.17
2023-05-18T16:33:21.938Z,11.17
2023-05-18T16:35:21.939Z,11.17
2023-05-18T16:36:21.957Z,11.06
2023-05-18T16:37:21.979Z,10.89
2023-05-18T16:38:21.931Z,11.17
2023-05-18T16:39:21.932Z,11.17
2023-05-18T16:40:21.984Z,10.89
2023-05-18T16:42:21.939Z,10.89